sensor_id;sensor_type;location;lat;lon;timestamp;pressure;altitude;pressure_sealevel;temperature;humidity
48200;BME280;33990;44.602;10.976;2023-04-25T00:01:10;100179.41;;;20.88;53.76
48200;BME280;33990;44.602;10.976;2023-04-25T00:03:40;100182.94;;;20.88;53.73
48200;BME280;33990;44.602;10.976;2023-04-25T00:06:08;100175.03;;;20.87;53.81
48200;BME280;33990;44.602;10.976;2023-04-25T00:08:35;100183.13;;;20.87;53.96
48200;BME280;33990;44.602;10.976;2023-04-25T00:11:03;100180.41;;;20.87;53.80
48200;BME280;33990;44.602;10.976;2023-04-25T00:13:30;100184.09;;;20.86;53.91
48200;BME280;33990;44.602;10.976;2023-04-25T00:15:57;100181.41;;;20.86;53.66
48200;BME280;33990;44.602;10.976;2023-04-25T00:18:25;100186.78;;;20.86;53.80
48200;BME280;33990;44.602;10.976;2023-04-25T00:20:55;100177.88;;;20.85;53.79
48200;BME280;33990;44.602;10.976;2023-04-25T00:23:23;100179.72;;;20.85;53.79
48200;BME280;33990;44.602;10.976;2023-04-25T00:25:50;100174.34;;;20.85;53.87
48200;BME280;33990;44.602;10.976;2023-04-25T00:28:18;100174.34;;;20.85;53.85
48200;BME280;33990;44.602;10.976;2023-04-25T00:30:45;100172.50;;;20.85;53.77
48200;BME280;33990;44.602;10.976;2023-04-25T00:33:13;100178.88;;;20.84;53.83
48200;BME280;33990;44.602;10.976;2023-04-25T00:35:40;100179.03;;;20.83;53.79
48200;BME280;33990;44.602;10.976;2023-04-25T00:38:08;100178.88;;;20.84;53.83
48200;BME280;33990;44.602;10.976;2023-04-25T00:40:35;100174.50;;;20.83;53.87
48200;BME280;33990;44.602;10.976;2023-04-25T00:43:02;100167.28;;;20.84;53.89
48200;BME280;33990;44.602;10.976;2023-04-25T00:45:30;100170.09;;;20.82;53.76
48200;BME280;33990;44.602;10.976;2023-04-25T00:47:57;100176.34;;;20.83;53.81
48200;BME280;33990;44.602;10.976;2023-04-25T00:50:24;100177.19;;;20.83;53.69
48200;BME280;33990;44.602;10.976;2023-04-25T00:52:52;100169.25;;;20.82;53.72
48200;BME280;33990;44.602;10.976;2023-04-25T00:55:19;100170.09;;;20.82;53.82
48200;BME280;33990;44.602;10.976;2023-04-25T00:57:46;100175.47;;;20.82;53.75
48200;BME280;33990;44.602;10.976;2023-04-25T01:00:14;100174.66;;;20.82;53.72
48200;BME280;33990;44.602;10.976;2023-04-25T01:02:44;100176.50;;;20.81;53.77
48200;BME280;33990;44.602;10.976;2023-04-25T01:05:12;100169.44;;;20.80;53.73
48200;BME280;33990;44.602;10.976;2023-04-25T01:07:40;100165.91;;;20.80;53.98
48200;BME280;33990;44.602;10.976;2023-04-25T01:10:08;100173.13;;;20.79;53.82
48200;BME280;33990;44.602;10.976;2023-04-25T01:12:37;100174.81;;;20.80;53.69
48200;BME280;33990;44.602;10.976;2023-04-25T01:15:05;100174.81;;;20.80;53.70
48200;BME280;33990;44.602;10.976;2023-04-25T01:17:34;100168.59;;;20.80;53.65
48200;BME280;33990;44.602;10.976;2023-04-25T01:20:04;100166.75;;;20.80;53.80
48200;BME280;33990;44.602;10.976;2023-04-25T01:22:32;100170.44;;;20.79;53.77
48200;BME280;33990;44.602;10.976;2023-04-25T01:25:00;100173.13;;;20.79;53.64
48200;BME280;33990;44.602;10.976;2023-04-25T01:27:28;100168.59;;;20.80;53.63
48200;BME280;33990;44.602;10.976;2023-04-25T01:29:56;100170.44;;;20.79;53.71
48200;BME280;33990;44.602;10.976;2023-04-25T01:32:25;100161.53;;;20.79;53.58
48200;BME280;33990;44.602;10.976;2023-04-25T01:34:54;100158.84;;;20.79;53.68
48200;BME280;33990;44.602;10.976;2023-04-25T01:37:22;100170.44;;;20.79;53.68
48200;BME280;33990;44.602;10.976;2023-04-25T01:39:49;100156.28;;;20.77;53.54
48200;BME280;33990;44.602;10.976;2023-04-25T01:42:18;100163.34;;;20.78;53.66
48200;BME280;33990;44.602;10.976;2023-04-25T01:44:45;100159.81;;;20.78;53.54
48200;BME280;33990;44.602;10.976;2023-04-25T01:47:13;100162.50;;;20.78;53.60
48200;BME280;33990;44.602;10.976;2023-04-25T01:49:40;100167.88;;;20.78;53.57
48200;BME280;33990;44.602;10.976;2023-04-25T01:52:08;100167.06;;;20.77;53.76
48200;BME280;33990;44.602;10.976;2023-04-25T01:54:35;100168.06;;;20.76;53.64
48200;BME280;33990;44.602;10.976;2023-04-25T01:57:03;100180.50;;;20.77;53.58
48200;BME280;33990;44.602;10.976;2023-04-25T01:59:33;100174.28;;;20.77;53.65
48200;BME280;33990;44.602;10.976;2023-04-25T02:02:09;100178.66;;;20.78;53.58
48200;BME280;33990;44.602;10.976;2023-04-25T02:04:37;100181.34;;;20.78;53.47
48200;BME280;33990;44.602;10.976;2023-04-25T02:07:04;100182.34;;;20.77;53.47
48200;BME280;33990;44.602;10.976;2023-04-25T02:09:42;100173.28;;;20.78;53.47
48200;BME280;33990;44.602;10.976;2023-04-25T02:12:11;100171.59;;;20.77;53.45
48200;BME280;33990;44.602;10.976;2023-04-25T02:14:57;100163.53;;;20.77;53.48
48200;BME280;33990;44.602;10.976;2023-04-25T02:17:33;100162.69;;;20.76;53.49
48200;BME280;33990;44.602;10.976;2023-04-25T02:20:01;100164.53;;;20.76;53.60
48200;BME280;33990;44.602;10.976;2023-04-25T02:22:28;100156.47;;;20.76;53.41
48200;BME280;33990;44.602;10.976;2023-04-25T02:24:57;100152.94;;;20.75;53.50
48200;BME280;33990;44.602;10.976;2023-04-25T02:27:25;100157.47;;;20.74;53.46
48200;BME280;33990;44.602;10.976;2023-04-25T02:29:52;100153.91;;;20.74;53.46
48200;BME280;33990;44.602;10.976;2023-04-25T02:32:19;100153.91;;;20.74;53.39
48200;BME280;33990;44.602;10.976;2023-04-25T02:34:47;100152.09;;;20.74;53.49
48200;BME280;33990;44.602;10.976;2023-04-25T02:37:15;100153.06;;;20.73;53.25
48200;BME280;33990;44.602;10.976;2023-04-25T02:39:45;100151.22;;;20.74;53.43
48200;BME280;33990;44.602;10.976;2023-04-25T02:42:12;100156.75;;;20.72;53.37
48200;BME280;33990;44.602;10.976;2023-04-25T02:44:39;100157.59;;;20.73;53.29
48200;BME280;33990;44.602;10.976;2023-04-25T02:47:07;100168.38;;;20.73;53.43
48200;BME280;33990;44.602;10.976;2023-04-25T02:49:34;100163.00;;;20.73;53.22
48200;BME280;33990;44.602;10.976;2023-04-25T02:52:02;100167.53;;;20.72;53.29
48200;BME280;33990;44.602;10.976;2023-04-25T02:54:29;100169.38;;;20.72;53.19
48200;BME280;33990;44.602;10.976;2023-04-25T02:56:58;100164.00;;;20.72;53.18
48200;BME280;33990;44.602;10.976;2023-04-25T02:59:30;100154.06;;;20.72;53.27
48200;BME280;33990;44.602;10.976;2023-04-25T03:01:57;100162.31;;;20.71;53.23
48200;BME280;33990;44.602;10.976;2023-04-25T03:04:24;100162.31;;;20.71;53.23
48200;BME280;33990;44.602;10.976;2023-04-25T03:06:52;100163.16;;;20.71;53.46
48200;BME280;33990;44.602;10.976;2023-04-25T03:09:21;100149.72;;;20.71;53.01
48200;BME280;33990;44.602;10.976;2023-04-25T03:11:49;100148.03;;;20.70;52.97
48200;BME280;33990;44.602;10.976;2023-04-25T03:14:17;100143.50;;;20.71;53.05
48200;BME280;33990;44.602;10.976;2023-04-25T03:16:44;100134.59;;;20.70;53.03
48200;BME280;33990;44.602;10.976;2023-04-25T03:19:12;100135.56;;;20.69;53.04
48200;BME280;33990;44.602;10.976;2023-04-25T03:21:39;100132.88;;;20.69;52.96
48200;BME280;33990;44.602;10.976;2023-04-25T03:24:07;100139.25;;;20.68;52.95
48200;BME280;33990;44.602;10.976;2023-04-25T03:26:34;100140.09;;;20.69;53.10
48200;BME280;33990;44.602;10.976;2023-04-25T03:29:01;100136.56;;;20.68;52.91
48200;BME280;33990;44.602;10.976;2023-04-25T03:31:29;100125.81;;;20.68;52.96
48200;BME280;33990;44.602;10.976;2023-04-25T03:33:56;100130.34;;;20.68;52.93
48200;BME280;33990;44.602;10.976;2023-04-25T03:36:24;100126.81;;;20.67;52.87
48200;BME280;33990;44.602;10.976;2023-04-25T03:38:51;100118.75;;;20.67;52.69
48200;BME280;33990;44.602;10.976;2023-04-25T03:41:20;100118.75;;;20.67;52.93
48200;BME280;33990;44.602;10.976;2023-04-25T03:43:59;100107.16;;;20.67;52.66
48200;BME280;33990;44.602;10.976;2023-04-25T03:46:27;100110.69;;;20.67;52.86
48200;BME280;33990;44.602;10.976;2023-04-25T03:48:54;100110.81;;;20.66;52.94
48200;BME280;33990;44.602;10.976;2023-04-25T03:51:27;100112.66;;;20.65;52.84
48200;BME280;33990;44.602;10.976;2023-04-25T03:53:55;100121.56;;;20.66;52.68
48200;BME280;33990;44.602;10.976;2023-04-25T03:56:41;100118.88;;;20.66;52.79
48200;BME280;33990;44.602;10.976;2023-04-25T03:59:17;100125.28;;;20.65;52.64
48200;BME280;33990;44.602;10.976;2023-04-25T04:01:44;100120.75;;;20.65;52.97
48200;BME280;33990;44.602;10.976;2023-04-25T04:04:12;100122.44;;;20.66;52.76
48200;BME280;33990;44.602;10.976;2023-04-25T04:06:40;100108.13;;;20.66;53.02
48200;BME280;33990;44.602;10.976;2023-04-25T04:09:15;100113.50;;;20.66;52.76
48200;BME280;33990;44.602;10.976;2023-04-25T04:11:43;100105.44;;;20.66;52.98
48200;BME280;33990;44.602;10.976;2023-04-25T04:14:11;100109.13;;;20.65;52.74
48200;BME280;33990;44.602;10.976;2023-04-25T04:16:43;100110.16;;;20.64;52.94
48200;BME280;33990;44.602;10.976;2023-04-25T04:19:10;100112.84;;;20.64;52.68
48200;BME280;33990;44.602;10.976;2023-04-25T04:21:42;100112.00;;;20.63;52.82
48200;BME280;33990;44.602;10.976;2023-04-25T04:24:10;100120.06;;;20.63;52.88
48200;BME280;33990;44.602;10.976;2023-04-25T04:27:00;100117.38;;;20.63;52.90
48200;BME280;33990;44.602;10.976;2023-04-25T04:29:35;100121.06;;;20.62;52.87
48200;BME280;33990;44.602;10.976;2023-04-25T04:32:10;100139.03;;;20.62;52.80
48200;BME280;33990;44.602;10.976;2023-04-25T04:34:37;100136.34;;;20.62;52.83
48200;BME280;33990;44.602;10.976;2023-04-25T04:37:07;100132.81;;;20.61;52.72
48200;BME280;33990;44.602;10.976;2023-04-25T04:39:36;100138.19;;;20.61;52.41
48200;BME280;33990;44.602;10.976;2023-04-25T04:42:09;100143.56;;;20.61;52.83
48200;BME280;33990;44.602;10.976;2023-04-25T04:44:54;100134.66;;;20.61;52.82
48200;BME280;33990;44.602;10.976;2023-04-25T04:47:42;100147.25;;;20.60;52.67
48200;BME280;33990;44.602;10.976;2023-04-25T04:50:35;100157.84;;;20.62;52.71
48200;BME280;33990;44.602;10.976;2023-04-25T04:53:22;100165.25;;;20.60;52.59
48200;BME280;33990;44.602;10.976;2023-04-25T04:55:52;100169.63;;;20.61;52.70
48200;BME280;33990;44.602;10.976;2023-04-25T04:58:32;100165.25;;;20.60;52.53
48200;BME280;33990;44.602;10.976;2023-04-25T05:01:23;100166.94;;;20.61;52.45
48200;BME280;33990;44.602;10.976;2023-04-25T05:03:56;100173.31;;;20.60;52.49
48200;BME280;33990;44.602;10.976;2023-04-25T05:06:46;100169.94;;;20.58;52.61
48200;BME280;33990;44.602;10.976;2023-04-25T05:09:43;100162.72;;;20.58;52.67
48200;BME280;33990;44.602;10.976;2023-04-25T05:12:10;100172.63;;;20.58;52.63
48200;BME280;33990;44.602;10.976;2023-04-25T05:14:50;100171.78;;;20.57;52.62
48200;BME280;33990;44.602;10.976;2023-04-25T05:17:41;100169.09;;;20.57;52.61
48200;BME280;33990;44.602;10.976;2023-04-25T05:20:20;100166.41;;;20.57;52.73
48200;BME280;33990;44.602;10.976;2023-04-25T05:22:50;100182.53;;;20.57;52.51
48200;BME280;33990;44.602;10.976;2023-04-25T05:25:22;100177.16;;;20.57;52.52
48200;BME280;33990;44.602;10.976;2023-04-25T05:27:50;100170.09;;;20.56;52.52
48200;BME280;33990;44.602;10.976;2023-04-25T05:30:49;100167.41;;;20.56;52.64
48200;BME280;33990;44.602;10.976;2023-04-25T05:33:20;100170.09;;;20.56;52.68
48200;BME280;33990;44.602;10.976;2023-04-25T05:35:48;100172.78;;;20.56;52.64
48200;BME280;33990;44.602;10.976;2023-04-25T05:38:15;100175.47;;;20.56;52.42
48200;BME280;33990;44.602;10.976;2023-04-25T05:41:15;100178.16;;;20.56;52.61
48200;BME280;33990;44.602;10.976;2023-04-25T05:43:59;100178.31;;;20.55;52.49
48200;BME280;33990;44.602;10.976;2023-04-25T05:46:41;100191.59;;;20.56;52.52
48200;BME280;33990;44.602;10.976;2023-04-25T05:49:09;100189.94;;;20.55;52.64
48200;BME280;33990;44.602;10.976;2023-04-25T05:51:53;100196.97;;;20.56;52.54
48200;BME280;33990;44.602;10.976;2023-04-25T05:54:40;100194.47;;;20.55;52.56
48200;BME280;33990;44.602;10.976;2023-04-25T05:57:08;100200.69;;;20.55;52.45
48200;BME280;33990;44.602;10.976;2023-04-25T05:59:35;100208.75;;;20.55;52.51
48200;BME280;33990;44.602;10.976;2023-04-25T06:02:03;100209.75;;;20.54;52.48
48200;BME280;33990;44.602;10.976;2023-04-25T06:04:33;100211.44;;;20.55;52.45
48200;BME280;33990;44.602;10.976;2023-04-25T06:07:01;100219.50;;;20.55;52.66
48200;BME280;33990;44.602;10.976;2023-04-25T06:09:28;100212.44;;;20.54;52.57
48200;BME280;33990;44.602;10.976;2023-04-25T06:11:56;100209.75;;;20.54;52.38
48200;BME280;33990;44.602;10.976;2023-04-25T06:14:23;100216.09;;;20.53;52.39
48200;BME280;33990;44.602;10.976;2023-04-25T06:16:53;100215.13;;;20.54;52.66
48200;BME280;33990;44.602;10.976;2023-04-25T06:19:20;100223.19;;;20.54;52.55
48200;BME280;33990;44.602;10.976;2023-04-25T06:21:47;100216.94;;;20.54;52.55
48200;BME280;33990;44.602;10.976;2023-04-25T06:24:15;100218.81;;;20.53;52.58
48200;BME280;33990;44.602;10.976;2023-04-25T06:26:44;100223.19;;;20.54;52.58
48200;BME280;33990;44.602;10.976;2023-04-25T06:29:12;100239.34;;;20.54;52.66
48200;BME280;33990;44.602;10.976;2023-04-25T06:31:39;100235.78;;;20.54;52.56
48200;BME280;33990;44.602;10.976;2023-04-25T06:34:07;100242.03;;;20.54;52.42
48200;BME280;33990;44.602;10.976;2023-04-25T06:36:37;100239.34;;;20.54;52.68
48200;BME280;33990;44.602;10.976;2023-04-25T06:39:08;100232.25;;;20.53;52.48
48200;BME280;33990;44.602;10.976;2023-04-25T06:41:36;100243.00;;;20.53;52.60
48200;BME280;33990;44.602;10.976;2023-04-25T06:44:06;100238.47;;;20.54;52.57
48200;BME280;33990;44.602;10.976;2023-04-25T06:46:51;100252.78;;;20.54;52.52
48200;BME280;33990;44.602;10.976;2023-04-25T06:49:19;100253.63;;;20.55;52.87
48200;BME280;33990;44.602;10.976;2023-04-25T06:51:47;100252.63;;;20.56;52.77
48200;BME280;33990;44.602;10.976;2023-04-25T06:54:14;100258.84;;;20.56;52.71
48200;BME280;33990;44.602;10.976;2023-04-25T06:56:51;100261.53;;;20.56;52.61
48200;BME280;33990;44.602;10.976;2023-04-25T06:59:18;100260.53;;;20.57;52.70
48200;BME280;33990;44.602;10.976;2023-04-25T07:01:46;100273.13;;;20.57;52.82
48200;BME280;33990;44.602;10.976;2023-04-25T07:04:17;100278.50;;;20.57;52.67
48200;BME280;33990;44.602;10.976;2023-04-25T07:06:49;100276.66;;;20.57;52.71
48200;BME280;33990;44.602;10.976;2023-04-25T07:09:22;100278.66;;;20.55;52.62
48200;BME280;33990;44.602;10.976;2023-04-25T07:11:50;100281.19;;;20.57;52.72
48200;BME280;33990;44.602;10.976;2023-04-25T07:14:18;100277.66;;;20.56;52.75
48200;BME280;33990;44.602;10.976;2023-04-25T07:16:46;100273.28;;;20.55;53.06
48200;BME280;33990;44.602;10.976;2023-04-25T07:19:13;100277.66;;;20.56;52.94
48200;BME280;33990;44.602;10.976;2023-04-25T07:21:41;100283.03;;;20.56;53.04
48200;BME280;33990;44.602;10.976;2023-04-25T07:24:10;100281.34;;;20.55;52.97
48200;BME280;33990;44.602;10.976;2023-04-25T07:26:42;100282.19;;;20.56;53.01
48200;BME280;33990;44.602;10.976;2023-04-25T07:29:29;100282.19;;;20.56;53.00
48200;BME280;33990;44.602;10.976;2023-04-25T07:31:59;100289.41;;;20.55;53.20
48200;BME280;33990;44.602;10.976;2023-04-25T07:34:27;100292.94;;;20.56;53.29
48200;BME280;33990;44.602;10.976;2023-04-25T07:36:54;100298.31;;;20.56;53.39
48200;BME280;33990;44.602;10.976;2023-04-25T07:39:24;100286.72;;;20.55;53.15
48200;BME280;33990;44.602;10.976;2023-04-25T07:41:51;100295.63;;;20.56;53.40
48200;BME280;33990;44.602;10.976;2023-04-25T07:44:24;100296.47;;;20.56;53.18
48200;BME280;33990;44.602;10.976;2023-04-25T07:46:53;100295.63;;;20.56;53.40
48200;BME280;33990;44.602;10.976;2023-04-25T07:49:20;100305.56;;;20.55;53.32
48200;BME280;33990;44.602;10.976;2023-04-25T07:51:49;100310.09;;;20.55;53.25
48200;BME280;33990;44.602;10.976;2023-04-25T07:54:18;100318.16;;;20.55;53.13
48200;BME280;33990;44.602;10.976;2023-04-25T07:56:51;100327.06;;;20.55;53.51
48200;BME280;33990;44.602;10.976;2023-04-25T07:59:26;100324.38;;;20.55;53.41
48200;BME280;33990;44.602;10.976;2023-04-25T08:01:57;100321.69;;;20.55;53.31
48200;BME280;33990;44.602;10.976;2023-04-25T08:04:25;100333.75;;;20.51;53.11
48200;BME280;33990;44.602;10.976;2023-04-25T08:07:04;100334.31;;;20.45;52.05
48200;BME280;33990;44.602;10.976;2023-04-25T08:09:39;100332.38;;;20.37;52.32
48200;BME280;33990;44.602;10.976;2023-04-25T08:12:12;100339.38;;;20.30;51.89
48200;BME280;33990;44.602;10.976;2023-04-25T08:14:40;100340.78;;;20.24;51.95
48200;BME280;33990;44.602;10.976;2023-04-25T08:17:07;100350.03;;;20.22;51.83
48200;BME280;33990;44.602;10.976;2023-04-25T08:19:39;100347.75;;;20.17;51.26
48200;BME280;33990;44.602;10.976;2023-04-25T08:22:12;100352.44;;;20.15;51.31
48200;BME280;33990;44.602;10.976;2023-04-25T08:24:52;100357.97;;;20.14;51.24
48200;BME280;33990;44.602;10.976;2023-04-25T08:27:20;100363.50;;;20.12;51.31
48200;BME280;33990;44.602;10.976;2023-04-25T08:29:48;100359.28;;;20.10;51.03
48200;BME280;33990;44.602;10.976;2023-04-25T08:32:17;100364.94;;;20.07;50.97
48200;BME280;33990;44.602;10.976;2023-04-25T08:34:59;100369.59;;;20.05;51.19
48200;BME280;33990;44.602;10.976;2023-04-25T08:37:26;100381.19;;;20.05;51.32
48200;BME280;33990;44.602;10.976;2023-04-25T08:40:01;100385.03;;;20.03;51.41
48200;BME280;33990;44.602;10.976;2023-04-25T08:42:46;100378.09;;;20.00;51.13
48200;BME280;33990;44.602;10.976;2023-04-25T08:45:15;100385.47;;;19.98;51.26
48200;BME280;33990;44.602;10.976;2023-04-25T08:47:45;100383.75;;;19.97;51.57
48200;BME280;33990;44.602;10.976;2023-04-25T08:50:13;100394.66;;;19.95;51.93
48200;BME280;33990;44.602;10.976;2023-04-25T08:52:44;100392.81;;;19.96;51.97
48200;BME280;33990;44.602;10.976;2023-04-25T08:55:13;100389.28;;;19.95;51.83
48200;BME280;33990;44.602;10.976;2023-04-25T08:57:42;100398.47;;;19.93;51.57
48200;BME280;33990;44.602;10.976;2023-04-25T09:00:12;100398.47;;;19.93;51.43
48200;BME280;33990;44.602;10.976;2023-04-25T09:02:42;100401.16;;;19.93;51.38
48200;BME280;33990;44.602;10.976;2023-04-25T09:05:13;100402.16;;;19.92;51.17
48200;BME280;33990;44.602;10.976;2023-04-25T09:07:41;100411.91;;;19.93;51.30
48200;BME280;33990;44.602;10.976;2023-04-25T09:10:08;100412.78;;;19.93;51.03
48200;BME280;33990;44.602;10.976;2023-04-25T09:12:38;100403.72;;;19.94;50.92
48200;BME280;33990;44.602;10.976;2023-04-25T09:15:09;100404.72;;;19.93;50.48
48200;BME280;33990;44.602;10.976;2023-04-25T09:17:55;100402.34;;;19.90;49.63
48200;BME280;33990;44.602;10.976;2023-04-25T09:20:23;100404.47;;;19.87;49.55
48200;BME280;33990;44.602;10.976;2023-04-25T09:23:05;100402.91;;;19.84;48.76
48200;BME280;33990;44.602;10.976;2023-04-25T09:25:35;100410.41;;;19.81;48.65
48200;BME280;33990;44.602;10.976;2023-04-25T09:28:08;100412.41;;;19.79;48.41
48200;BME280;33990;44.602;10.976;2023-04-25T09:30:36;100413.53;;;19.76;48.44
48200;BME280;33990;44.602;10.976;2023-04-25T09:33:17;100419.03;;;19.74;48.00
48200;BME280;33990;44.602;10.976;2023-04-25T09:35:48;100416.81;;;19.70;48.21
48200;BME280;33990;44.602;10.976;2023-04-25T09:38:42;100427.53;;;19.70;47.55
48200;BME280;33990;44.602;10.976;2023-04-25T09:41:22;100419.91;;;19.65;46.97
48200;BME280;33990;44.602;10.976;2023-04-25T09:43:50;100426.56;;;19.61;47.39
48200;BME280;33990;44.602;10.976;2023-04-25T09:46:18;100432.88;;;19.60;47.57
48200;BME280;33990;44.602;10.976;2023-04-25T09:48:53;100435.72;;;19.59;47.53
48200;BME280;33990;44.602;10.976;2023-04-25T09:51:32;100431.34;;;19.58;46.62
48200;BME280;33990;44.602;10.976;2023-04-25T09:54:00;100431.34;;;19.58;46.74
48200;BME280;33990;44.602;10.976;2023-04-25T09:56:36;100426.81;;;19.58;46.93
48200;BME280;33990;44.602;10.976;2023-04-25T09:59:07;100419.75;;;19.57;46.41
48200;BME280;33990;44.602;10.976;2023-04-25T10:01:40;100420.72;;;19.56;46.55
48200;BME280;33990;44.602;10.976;2023-04-25T10:04:18;100431.47;;;19.56;46.45
48200;BME280;33990;44.602;10.976;2023-04-25T10:07:09;100430.63;;;19.56;46.70
48200;BME280;33990;44.602;10.976;2023-04-25T10:09:39;100428.09;;;19.54;47.42
48200;BME280;33990;44.602;10.976;2023-04-25T10:12:07;100424.41;;;19.55;46.92
48200;BME280;33990;44.602;10.976;2023-04-25T10:14:35;100434.31;;;19.55;46.61
48200;BME280;33990;44.602;10.976;2023-04-25T10:17:02;100420.88;;;19.55;46.96
48200;BME280;33990;44.602;10.976;2023-04-25T10:19:30;100420.03;;;19.54;46.98
48200;BME280;33990;44.602;10.976;2023-04-25T10:24:46;100403.94;;;19.54;47.07
48200;BME280;33990;44.602;10.976;2023-04-25T10:27:14;100410.97;;;19.55;46.97
48200;BME280;33990;44.602;10.976;2023-04-25T10:29:41;100407.31;;;19.56;47.12
48200;BME280;33990;44.602;10.976;2023-04-25T10:32:11;100396.44;;;19.58;46.92
48200;BME280;33990;44.602;10.976;2023-04-25T10:37:10;100389.91;;;19.60;46.90
48200;BME280;33990;44.602;10.976;2023-04-25T10:39:42;100393.34;;;19.62;46.85
48200;BME280;33990;44.602;10.976;2023-04-25T10:42:09;100380.75;;;19.63;47.02
48200;BME280;33990;44.602;10.976;2023-04-25T10:44:37;100386.97;;;19.63;46.61
48200;BME280;33990;44.602;10.976;2023-04-25T10:47:07;100381.47;;;19.65;46.59
48200;BME280;33990;44.602;10.976;2023-04-25T10:49:42;100385.84;;;19.66;46.78
48200;BME280;33990;44.602;10.976;2023-04-25T10:54:53;100379.19;;;19.70;46.41
48200;BME280;33990;44.602;10.976;2023-04-25T11:00:08;100373.38;;;19.74;47.13
48200;BME280;33990;44.602;10.976;2023-04-25T11:05:11;100368.69;;;19.76;47.47
48200;BME280;33990;44.602;10.976;2023-04-25T11:07:52;100368.41;;;19.80;47.70
48200;BME280;33990;44.602;10.976;2023-04-25T11:10:33;100361.38;;;19.79;47.18
48200;BME280;33990;44.602;10.976;2023-04-25T11:13:04;100367.41;;;19.81;46.84
48200;BME280;33990;44.602;10.976;2023-04-25T11:15:31;100377.19;;;19.82;47.08
48200;BME280;33990;44.602;10.976;2023-04-25T11:17:59;100370.81;;;19.83;48.21
48200;BME280;33990;44.602;10.976;2023-04-25T11:20:26;100370.97;;;19.81;47.77
48200;BME280;33990;44.602;10.976;2023-04-25T11:22:58;100376.34;;;19.81;47.33
48200;BME280;33990;44.602;10.976;2023-04-25T11:25:27;100365.72;;;19.80;47.43
48200;BME280;33990;44.602;10.976;2023-04-25T11:27:57;100364.03;;;19.79;47.56
48200;BME280;33990;44.602;10.976;2023-04-25T11:30:25;100358.69;;;19.79;47.82
48200;BME280;33990;44.602;10.976;2023-04-25T11:32:56;100369.41;;;19.79;47.92
48200;BME280;33990;44.602;10.976;2023-04-25T11:35:24;100376.47;;;19.80;47.66
48200;BME280;33990;44.602;10.976;2023-04-25T11:37:52;100366.56;;;19.80;47.41
48200;BME280;33990;44.602;10.976;2023-04-25T11:40:20;100370.41;;;19.78;46.97
48200;BME280;33990;44.602;10.976;2023-04-25T11:42:47;100360.66;;;19.76;47.22
48200;BME280;33990;44.602;10.976;2023-04-25T11:45:15;100374.94;;;19.77;47.65
48200;BME280;33990;44.602;10.976;2023-04-25T11:47:42;100367.00;;;19.75;47.40
48200;BME280;33990;44.602;10.976;2023-04-25T11:50:10;100364.22;;;19.77;47.13
48200;BME280;33990;44.602;10.976;2023-04-25T11:52:42;100356.16;;;19.77;47.05
48200;BME280;33990;44.602;10.976;2023-04-25T11:57:42;100361.38;;;19.79;47.18
48200;BME280;33990;44.602;10.976;2023-04-25T12:00:15;100363.22;;;19.78;47.39
48200;BME280;33990;44.602;10.976;2023-04-25T12:02:54;100357.69;;;19.80;47.33
48200;BME280;33990;44.602;10.976;2023-04-25T12:05:27;100355.84;;;19.80;48.01
48200;BME280;33990;44.602;10.976;2023-04-25T12:08:12;100350.47;;;19.80;47.00
48200;BME280;33990;44.602;10.976;2023-04-25T12:10:41;100345.94;;;19.81;47.01
48200;BME280;33990;44.602;10.976;2023-04-25T12:13:19;100353.16;;;19.80;47.35
48200;BME280;33990;44.602;10.976;2023-04-25T12:15:47;100348.78;;;19.79;47.44
48200;BME280;33990;44.602;10.976;2023-04-25T12:18:14;100348.78;;;19.79;48.02
48200;BME280;33990;44.602;10.976;2023-04-25T12:20:42;100339.72;;;19.80;48.65
48200;BME280;33990;44.602;10.976;2023-04-25T12:23:10;100351.84;;;19.84;49.64
48200;BME280;33990;44.602;10.976;2023-04-25T12:25:40;100343.50;;;19.87;50.09
48200;BME280;33990;44.602;10.976;2023-04-25T12:28:22;100345.06;;;19.90;50.28
48200;BME280;33990;44.602;10.976;2023-04-25T12:31:01;100340.25;;;19.93;50.28
48200;BME280;33990;44.602;10.976;2023-04-25T12:33:30;100339.09;;;19.96;50.13
48200;BME280;33990;44.602;10.976;2023-04-25T12:35:58;100328.22;;;19.97;50.42
48200;BME280;33990;44.602;10.976;2023-04-25T12:38:31;100327.91;;;20.00;50.54
48200;BME280;33990;44.602;10.976;2023-04-25T12:40:58;100321.56;;;20.02;50.71
48200;BME280;33990;44.602;10.976;2023-04-25T12:43:26;100326.75;;;20.03;50.67
48200;BME280;33990;44.602;10.976;2023-04-25T12:45:54;100326.59;;;20.05;50.57
48200;BME280;33990;44.602;10.976;2023-04-25T12:48:22;100322.06;;;20.05;50.52
48200;BME280;33990;44.602;10.976;2023-04-25T12:50:50;100320.09;;;20.07;50.43
48200;BME280;33990;44.602;10.976;2023-04-25T12:53:20;100322.50;;;20.10;50.70
48200;BME280;33990;44.602;10.976;2023-04-25T12:55:48;100312.59;;;20.11;50.93
48200;BME280;33990;44.602;10.976;2023-04-25T12:58:16;100317.81;;;20.12;51.04
48200;BME280;33990;44.602;10.976;2023-04-25T13:00:46;100307.06;;;20.12;51.27
48200;BME280;33990;44.602;10.976;2023-04-25T13:03:13;100320.34;;;20.14;51.31
48200;BME280;33990;44.602;10.976;2023-04-25T13:05:41;100313.81;;;20.16;51.50
48200;BME280;33990;44.602;10.976;2023-04-25T13:08:09;100321.75;;;20.18;51.53
48200;BME280;33990;44.602;10.976;2023-04-25T13:10:36;100316.38;;;20.18;51.50
48200;BME280;33990;44.602;10.976;2023-04-25T13:13:06;100319.75;;;20.20;51.32
48200;BME280;33990;44.602;10.976;2023-04-25T13:15:33;100319.59;;;20.21;51.38